Time;durP1;ratioP1;P1;durP2;ratioP2;P2;SDS_P1;SDS_P2;PMS_P1;PMS_P2;Temp;Humidity;BMP_temperature;BMP_pressure;BME280_temperature;BME280_humidity;BME280_pressure;Samples;Min_cycle;Max_cycle;Signal;HPM_P1;HPM_P2
2023/07/05 00:05:36;;;;;;;10.07;7.25;;;;;;;14.66;100.00;100197.94;5135170;28;20737;-83
2023/07/05 00:08:02;;;;;;;9.02;6.75;;;;;;;14.62;100.00;100188.75;5133790;27;20479;-82
2023/07/05 00:13:49;;;;;;;8.43;5.43;;;;;;;14.60;100.00;100155.09;5135402;28;20513;-85
2023/07/05 00:19:36;;;;;;;8.90;5.40;;;;;;;14.55;100.00;100139.72;5135283;28;20046;-82
2023/07/05 00:22:02;;;;;;;10.75;5.22;;;;;;;14.63;100.00;100147.31;5116571;28;20023;-84
2023/07/05 00:24:28;;;;;;;7.35;4.25;;;;;;;14.60;100.00;100118.25;5134498;28;20046;-82
2023/07/05 00:30:16;;;;;;;11.50;5.32;;;;;;;14.64;100.00;100105.06;5135663;27;20081;-85
2023/07/05 00:36:03;;;;;;;8.35;5.43;;;;;;;14.44;100.00;100085.03;5134641;28;20407;-80
2023/07/05 00:38:29;;;;;;;7.78;4.72;;;;;;;14.46;100.00;100068.66;5116120;28;20053;-80
2023/07/05 00:44:15;;;;;;;7.03;4.70;;;;;;;14.53;100.00;100029.69;5135230;28;20042;-83
2023/07/05 00:50:18;;;;;;;9.25;5.63;;;;;;;14.49;100.00;100070.81;5134656;28;20409;-82
2023/07/05 00:56:10;;;;;;;7.57;4.55;;;;;;;14.45;100.00;100062.44;5134439;28;20127;-83
2023/07/05 00:58:37;;;;;;;7.72;4.93;;;;;;;14.43;100.00;100056.50;5115977;28;20023;-80
2023/07/05 01:01:02;;;;;;;6.63;5.10;;;;;;;14.41;100.00;100044.34;5115145;28;20096;-83
2023/07/05 01:10:47;;;;;;;11.18;5.25;;;;;;;14.43;100.00;100032.28;5134624;28;20042;-84
2023/07/05 01:16:40;;;;;;;6.85;4.68;;;;;;;14.53;100.00;100036.94;5134646;28;20403;-85
2023/07/05 01:19:48;;;;;;;7.80;4.97;;;;;;;14.47;100.00;100021.84;5132460;27;20039;-83
2023/07/05 01:22:49;;;;;;;7.25;4.30;;;;;;;14.50;100.00;100032.91;5115521;28;20027;-85
2023/07/05 01:25:27;;;;;;;11.10;5.70;;;;;;;14.50;100.00;100024.03;5078552;28;20399;-85
2023/07/05 01:31:16;;;;;;;8.95;5.53;;;;;;;14.53;100.00;100035.06;5134551;28;20481;-86
2023/07/05 01:37:06;;;;;;;10.13;5.30;;;;;;;14.57;100.00;100036.16;5136186;28;20041;-90
2023/07/05 01:42:57;;;;;;;9.75;5.28;;;;;;;14.50;100.00;100038.28;5138618;28;20038;-87
2023/07/05 01:49:13;;;;;;;8.43;4.40;;;;;;;14.50;100.00;100040.97;5136727;28;20038;-87
2023/07/05 01:51:51;;;;;;;7.75;4.72;;;;;;;14.40;100.00;100022.03;5115916;28;20038;-83
2023/07/05 01:54:27;;;;;;;7.35;4.53;;;;;;;14.48;100.00;100043.13;5114726;28;20574;-85
2023/07/05 01:57:22;;;;;;;9.63;4.53;;;;;;;14.47;100.00;100046.88;5134142;28;20023;-85
2023/07/05 02:00:00;;;;;;;6.00;4.10;;;;;;;14.38;100.00;100047.56;5132777;28;20161;-82
2023/07/05 02:02:37;;;;;;;5.80;3.90;;;;;;;14.34;100.00;100060.72;5134602;28;20023;-83
2023/07/05 02:05:06;;;;;;;6.20;4.07;;;;;;;14.26;100.00;100056.63;5115289;28;20060;-81
2023/07/05 02:07:32;;;;;;;5.25;4.15;;;;;;;14.21;100.00;100064.66;5115957;28;20471;-83
2023/07/05 02:13:20;;;;;;;6.88;3.55;;;;;;;14.04;100.00;100092.75;5134272;28;20091;-85
2023/07/05 02:15:48;;;;;;;4.80;3.28;;;;;;;14.02;100.00;100097.56;5133693;28;20035;-84
2023/07/05 02:18:14;;;;;;;4.13;3.17;;;;;;;13.78;100.00;100097.06;5114546;28;20516;-85
2023/07/05 02:20:41;;;;;;;5.28;2.80;;;;;;;13.80;100.00;100108.34;5115414;28;20038;-84
2023/07/05 02:23:07;;;;;;;7.70;3.45;;;;;;;13.57;100.00;100125.56;5133706;28;20058;-85
2023/07/05 02:28:55;;;;;;;4.95;3.10;;;;;;;13.06;100.00;100132.16;5133520;28;20058;-81
2023/07/05 02:34:42;;;;;;;5.88;3.25;;;;;;;12.77;100.00;100142.22;5133364;28;20138;-82
2023/07/05 02:40:29;;;;;;;4.43;3.33;;;;;;;12.63;100.00;100139.03;5133470;28;20084;-82
2023/07/05 02:49:42;;;;;;;7.20;3.53;;;;;;;12.31;100.00;100139.59;5134853;28;20088;-80
2023/07/05 02:52:08;;;;;;;5.50;3.97;;;;;;;12.25;100.00;100145.13;5135237;28;20031;-83
2023/07/05 02:57:54;;;;;;;6.88;3.95;;;;;;;12.20;100.00;100156.56;5133969;28;20271;-82
2023/07/05 03:00:21;;;;;;;5.47;3.60;;;;;;;12.13;100.00;100142.50;5134470;28;20098;-86
2023/07/05 03:02:46;;;;;;;6.07;3.17;;;;;;;12.18;100.00;100128.38;5117130;28;20289;-82
2023/07/05 03:08:33;;;;;;;4.53;3.20;;;;;;;12.10;100.00;100151.00;5134483;28;20553;-83
2023/07/05 03:10:59;;;;;;;7.05;4.32;;;;;;;11.99;100.00;100150.03;5135385;28;20020;-82
2023/07/05 03:13:30;;;;;;;5.10;3.45;;;;;;;11.99;100.00;100149.22;5117017;28;20074;-82
2023/07/05 03:15:55;;;;;;;5.30;3.88;;;;;;;11.93;100.00;100142.94;5132813;28;20039;-83
2023/07/05 03:18:21;;;;;;;6.60;4.03;;;;;;;11.93;100.00;100151.00;5133838;28;20072;-81
2023/07/05 03:24:08;;;;;;;6.88;4.00;;;;;;;11.89;100.00;100147.16;5135121;28;20103;-89
2023/07/05 03:29:55;;;;;;;9.90;4.10;;;;;;;11.91;100.00;100158.47;5134631;28;20284;-84
2023/07/05 03:32:21;;;;;;;8.15;4.80;;;;;;;11.91;100.00;100146.94;5116153;28;20027;-83
2023/07/05 03:38:08;;;;;;;7.85;4.57;;;;;;;11.91;100.00;100141.56;5135558;28;20054;-87
2023/07/05 03:40:33;;;;;;;7.10;4.67;;;;;;;11.98;100.00;100163.66;5134919;28;20039;-81
2023/07/05 03:46:20;;;;;;;8.02;4.50;;;;;;;12.02;100.00;100168.31;5138666;27;20042;-82
2023/07/05 03:52:07;;;;;;;9.38;4.72;;;;;;;12.04;100.00;100160.84;5137021;28;20485;-87
2023/07/05 03:57:56;;;;;;;9.25;5.32;;;;;;;12.08;100.00;100159.28;5137039;27;20428;-86
2023/07/05 04:03:45;;;;;;;8.05;4.80;;;;;;;12.14;100.00;100149.47;5136533;28;20176;-84
2023/07/05 04:06:11;;;;;;;9.85;5.18;;;;;;;12.17;100.00;100143.66;5135302;28;20047;-87
2023/07/05 04:08:36;;;;;;;9.90;5.55;;;;;;;12.20;100.00;100128.97;5118409;28;20016;-82
2023/07/05 04:11:01;;;;;;;7.77;4.83;;;;;;;12.28;100.00;100145.44;5137200;28;20054;-85
2023/07/05 04:13:27;;;;;;;8.73;4.78;;;;;;;12.22;100.00;100138.38;5136312;28;20379;-84
2023/07/05 04:16:02;;;;;;;9.43;4.88;;;;;;;12.35;100.00;100150.66;5117865;28;20031;-82
2023/07/05 04:18:29;;;;;;;8.20;5.00;;;;;;;12.38;100.00;100147.47;5117373;28;20230;-84
2023/07/05 04:24:16;;;;;;;7.10;4.88;;;;;;;12.38;100.00;100147.47;5138748;28;20399;-84
2023/07/05 04:26:41;;;;;;;9.00;5.37;;;;;;;12.47;100.00;100150.59;5139017;27;20300;-83
2023/07/05 04:32:29;;;;;;;8.77;5.15;;;;;;;12.60;100.00;100156.44;5139836;28;20314;-85
2023/07/05 04:38:16;;;;;;;9.27;4.80;;;;;;;12.68;100.00;100150.66;5138454;28;20451;-82
2023/07/05 04:44:06;;;;;;;11.73;5.45;;;;;;;12.70;100.00;100151.22;5138822;28;20045;-82
2023/07/05 04:46:31;;;;;;;8.27;4.93;;;;;;;12.65;100.00;100161.06;5142161;28;20043;-83
2023/07/05 04:52:18;;;;;;;9.20;4.97;;;;;;;12.63;100.00;100133.66;5137126;28;20046;-84
2023/07/05 04:58:05;;;;;;;12.38;4.97;;;;;;;12.69;100.00;100160.31;5136375;28;20280;-85
2023/07/05 05:03:52;;;;;;;10.20;5.50;;;;;;;12.75;100.00;100155.88;5137658;28;20091;-83
2023/07/05 05:09:40;;;;;;;8.00;4.18;;;;;;;12.83;100.00;100154.63;5136868;27;20307;-84
2023/07/05 05:15:27;;;;;;;9.63;5.32;;;;;;;12.96;100.00;100160.47;5136965;28;20063;-86
2023/07/05 05:17:52;;;;;;;7.73;4.90;;;;;;;12.86;100.00;100154.94;5118165;28;20081;-84
2023/07/05 05:20:18;;;;;;;8.70;4.30;;;;;;;12.98;100.00;100179.81;5134440;28;20299;-86
2023/07/05 05:26:04;;;;;;;7.30;4.47;;;;;;;12.90;100.00;100166.81;5135077;27;20398;-87
2023/07/05 05:31:51;;;;;;;7.70;4.20;;;;;;;12.99;100.00;100173.38;5135119;27;20042;-83
2023/07/05 05:37:39;;;;;;;8.80;4.30;;;;;;;12.93;100.00;100170.88;5134140;28;20329;-85
2023/07/05 05:43:26;;;;;;;7.43;3.80;;;;;;;12.83;100.00;100168.06;5136503;28;20045;-87
2023/07/05 05:49:13;;;;;;;6.60;4.07;;;;;;;12.81;100.00;100168.28;5138837;28;20042;-83
2023/07/05 05:55:00;;;;;;;10.30;4.75;;;;;;;12.83;100.00;100181.47;5136845;28;20337;-80
2023/07/05 06:00:47;;;;;;;7.43;3.95;;;;;;;12.71;100.00;100168.13;5138728;28;20051;-80
2023/07/05 06:10:02;;;;;;;9.18;4.28;;;;;;;12.89;100.00;100215.34;5139641;28;20038;-81
2023/07/05 06:16:00;;;;;;;8.48;3.95;;;;;;;13.06;100.00;100224.22;5136698;28;20083;-80
2023/07/05 06:21:47;;;;;;;6.60;4.20;;;;;;;12.65;100.00;100234.28;5142311;27;20053;-78
2023/07/05 06:27:34;;;;;;;7.57;4.30;;;;;;;12.77;100.00;100230.75;5137201;27;20823;-82
2023/07/05 06:33:21;;;;;;;6.15;3.10;;;;;;;13.37;100.00;100236.25;5134981;28;20271;-83
2023/07/05 06:39:08;;;;;;;3.90;3.20;;;;;;;13.62;100.00;100219.69;5135419;28;20271;-84
2023/07/05 06:44:56;;;;;;;9.23;3.60;;;;;;;13.90;100.00;100259.81;5135082;28;20179;-82
2023/07/05 06:50:43;;;;;;;7.45;3.40;;;;;;;15.10;100.00;100257.78;5137430;27;20559;-80
2023/07/05 06:53:10;;;;;;;5.67;3.40;;;;;;;15.50;100.00;100257.22;5135721;28;20035;-82
2023/07/05 06:58:57;;;;;;;5.72;3.42;;;;;;;14.83;100.00;100263.22;5133853;28;20062;-81
2023/07/05 07:04:44;;;;;;;5.55;2.83;;;;;;;14.82;100.00;100274.25;5133459;28;20791;-78
2023/07/05 07:10:34;;;;;;;4.22;2.90;;;;;;;16.74;100.00;100297.91;5132989;28;20518;-78
2023/07/05 07:16:21;;;;;;;6.68;3.08;;;;;;;15.64;100.00;100316.91;5134142;27;20046;-83
2023/07/05 07:22:08;;;;;;;7.10;3.10;;;;;;;15.71;100.00;100336.38;5141191;27;20049;-80
2023/07/05 07:27:54;;;;;;;4.43;2.95;;;;;;;15.58;100.00;100326.03;5137381;27;20415;-81
2023/07/05 07:33:42;;;;;;;6.82;3.28;;;;;;;14.63;100.00;100351.84;5138171;28;20127;-79
2023/07/05 07:39:29;;;;;;;8.07;4.10;;;;;;;13.42;100.00;100367.09;5139435;28;20045;-80
2023/07/05 07:45:16;;;;;;;5.40;3.40;;;;;;;13.09;100.00;100379.44;5138248;28;20083;-78
2023/07/05 07:51:03;;;;;;;6.47;3.75;;;;;;;12.73;100.00;100396.75;5137446;28;20775;-79
2023/07/05 07:56:50;;;;;;;7.22;4.35;;;;;;;12.51;100.00;100406.50;5137394;28;20823;-80
2023/07/05 08:02:37;;;;;;;6.80;4.30;;;;;;;13.02;100.00;100400.25;5135663;27;20318;-81
2023/07/05 08:08:24;;;;;;;6.80;4.97;;;;;;;12.88;100.00;100406.94;5136113;28;20321;-81
2023/07/05 08:14:17;;;;;;;10.30;4.90;;;;;;;12.56;100.00;100401.22;5135492;27;20271;-80
2023/07/05 08:20:05;;;;;;;9.25;5.20;;;;;;;12.92;100.00;100410.78;5135425;28;20123;-80
2023/07/05 08:25:55;;;;;;;8.77;4.80;;;;;;;12.99;100.00;100430.22;5135476;28;20445;-79
2023/07/05 08:31:42;;;;;;;7.07;5.03;;;;;;;16.32;100.00;100427.59;5135210;28;20117;-79
2023/07/05 08:37:30;;;;;;;10.20;4.97;;;;;;;16.66;100.00;100446.94;5134944;28;20046;-81
2023/07/05 08:43:32;;;;;;;7.00;4.40;;;;;;;17.54;100.00;100441.47;5134447;28;20505;-81
2023/07/05 08:49:24;;;;;;;5.93;4.68;;;;;;;17.48;100.00;100477.69;5136176;28;20038;-80
2023/07/05 08:55:15;;;;;;;8.07;4.43;;;;;;;19.56;100.00;100471.72;5134793;28;20513;-80
2023/07/05 09:01:05;;;;;;;8.82;4.70;;;;;;;20.37;93.72;100486.47;5134933;28;20120;-80
2023/07/05 09:03:31;;;;;;;6.93;3.90;;;;;;;20.63;91.85;100493.28;5133989;28;20035;-81
2023/07/05 09:09:29;;;;;;;9.80;3.72;;;;;;;21.10;87.22;100501.66;5136320;28;20450;-82
2023/07/05 09:15:32;;;;;;;6.72;3.40;;;;;;;20.48;88.57;100503.50;5135942;28;20039;-79
2023/07/05 09:21:37;;;;;;;7.13;3.35;;;;;;;20.48;86.37;100498.88;5135895;28;20054;-80
2023/07/05 09:27:39;;;;;;;6.70;3.40;;;;;;;20.86;85.10;100515.31;5135018;27;20092;-79
2023/07/05 09:33:38;;;;;;;6.00;3.80;;;;;;;21.12;85.75;100527.50;5135356;28;20591;-79
2023/07/05 09:39:53;;;;;;;6.00;3.05;;;;;;;22.00;73.60;100549.66;5133113;27;20038;-80
2023/07/05 09:45:39;;;;;;;13.70;3.60;;;;;;;20.29;77.68;100542.25;5135278;28;20547;-79
2023/07/05 09:51:27;;;;;;;7.43;2.53;;;;;;;20.11;77.08;100584.47;5134784;28;20283;-77
2023/07/05 09:57:22;;;;;;;5.25;2.50;;;;;;;19.85;76.39;100587.66;5133876;28;20041;-77
2023/07/05 10:03:11;;;;;;;6.95;2.95;;;;;;;20.24;77.18;100587.63;5134347;28;20126;-80
2023/07/05 10:09:11;;;;;;;8.70;2.90;;;;;;;19.67;79.76;100587.22;5135418;28;20042;-77
2023/07/05 10:14:59;;;;;;;6.40;2.15;;;;;;;19.68;77.09;100588.03;5134569;28;20084;-80
2023/07/05 10:20:47;;;;;;;7.82;2.65;;;;;;;19.41;76.34;100621.78;5135329;28;20049;-78
2023/07/05 10:26:35;;;;;;;6.65;2.15;;;;;;;20.09;72.60;100637.44;5137519;27;20122;-79
2023/07/05 10:32:22;;;;;;;8.73;2.50;;;;;;;20.83;70.18;100659.94;5135002;28;20507;-77
2023/07/05 10:38:24;;;;;;;8.55;2.50;;;;;;;20.22;68.66;100672.06;5135075;28;20123;-77
2023/07/05 10:44:29;;;;;;;6.20;2.22;;;;;;;19.52;72.06;100665.94;5135022;28;20398;-78
2023/07/05 10:50:17;;;;;;;3.72;1.63;;;;;;;19.76;68.42;100687.84;5134872;28;20050;-78
2023/07/05 10:56:09;;;;;;;6.05;1.90;;;;;;;19.83;68.86;100657.69;5136702;27;20494;-75
2023/07/05 11:02:12;;;;;;;3.97;1.98;;;;;;;19.77;69.16;100700.31;5136918;28;20482;-75
2023/07/05 11:08:02;;;;;;;5.68;1.77;;;;;;;21.30;65.44;100686.38;5137078;28;20050;-75
2023/07/05 11:13:51;;;;;;;6.35;2.33;;;;;;;21.26;61.77;100704.38;5136770;28;20524;-76
2023/07/05 11:22:59;;;;;;;5.80;2.17;;;;;;;21.41;64.07;100709.69;5136439;28;20086;-75
2023/07/05 11:28:46;;;;;;;4.72;1.90;;;;;;;21.59;63.69;100721.69;5135752;27;20326;-74
2023/07/05 11:34:46;;;;;;;5.85;2.28;;;;;;;21.31;61.21;100721.47;5135896;28;20098;-74
2023/07/05 11:41:04;;;;;;;7.13;2.38;;;;;;;22.10;62.21;100730.06;5136114;28;20383;-74
2023/07/05 11:46:50;;;;;;;9.35;2.10;;;;;;;22.73;56.98;100745.19;5135995;28;20451;-75
2023/07/05 11:52:42;;;;;;;6.47;2.65;;;;;;;21.56;59.28;100730.44;5135867;28;20046;-74
2023/07/05 11:58:35;;;;;;;7.35;1.95;;;;;;;22.07;61.31;100770.69;5135945;28;20562;-75
2023/07/05 12:04:23;;;;;;;6.75;2.17;;;;;;;23.09;55.58;100759.88;5135161;27;20066;-76
2023/07/05 12:10:18;;;;;;;4.80;2.00;;;;;;;23.06;52.60;100771.38;5135691;28;20119;-76
2023/07/05 12:16:07;;;;;;;4.25;1.83;;;;;;;22.35;52.91;100783.38;5135574;28;20041;-75
2023/07/05 12:21:59;;;;;;;4.55;2.03;;;;;;;22.01;54.52;100791.72;5136623;27;20058;-76
2023/07/05 12:27:46;;;;;;;5.68;2.10;;;;;;;24.82;53.62;100793.78;5137258;27;20091;-77
2023/07/05 12:33:35;;;;;;;9.10;2.17;;;;;;;24.66;45.87;100813.28;5136000;28;20378;-74
2023/07/05 12:39:22;;;;;;;5.10;2.30;;;;;;;23.44;49.18;100814.94;5136277;28;20043;-77
2023/07/05 12:45:10;;;;;;;3.97;1.80;;;;;;;23.13;46.90;100804.56;5136409;28;20038;-77
2023/07/05 12:51:21;;;;;;;2.25;1.75;;;;;;;23.35;48.71;100806.63;5135217;28;20099;-76
2023/07/05 12:57:20;;;;;;;5.25;2.00;;;;;;;23.46;48.67;100829.09;5134873;28;20050;-75
2023/07/05 13:06:33;;;;;;;3.10;2.00;;;;;;;23.80;45.48;100842.41;5134654;28;20082;-74
2023/07/05 13:12:20;;;;;;;3.75;2.10;;;;;;;24.04;45.04;100844.97;5134520;28;20038;-74
2023/07/05 13:18:35;;;;;;;7.47;1.85;;;;;;;23.65;45.68;100853.63;5133767;28;20633;-74
2023/07/05 13:24:28;;;;;;;2.75;1.60;;;;;;;22.80;48.24;100854.69;5134070;28;20046;-74
2023/07/05 13:30:18;;;;;;;4.57;1.92;;;;;;;22.96;50.01;100860.75;5133913;28;20045;-73
2023/07/05 13:36:05;;;;;;;4.32;2.00;;;;;;;22.48;50.41;100855.41;5133677;28;20042;-74
2023/07/05 13:41:53;;;;;;;5.57;2.08;;;;;;;22.07;50.76;100852.41;5133541;28;20332;-73
2023/07/05 13:47:41;;;;;;;4.45;2.03;;;;;;;21.92;53.32;100870.50;5133668;28;20042;-74
2023/07/05 13:53:29;;;;;;;4.28;2.10;;;;;;;21.86;53.72;100887.97;5134310;28;20045;-72
2023/07/05 13:59:18;;;;;;;8.02;2.88;;;;;;;21.70;55.21;100893.88;5134187;28;20057;-74
2023/07/05 14:05:05;;;;;;;5.22;2.10;;;;;;;21.77;55.58;100875.31;5133650;27;20057;-73
2023/07/05 14:10:52;;;;;;;7.15;2.40;;;;;;;21.22;54.33;100899.16;5133827;28;20050;-73
2023/07/05 14:16:40;;;;;;;4.97;1.92;;;;;;;21.13;54.92;100901.66;5133395;28;20307;-73
2023/07/05 14:22:27;;;;;;;6.05;2.30;;;;;;;21.26;53.29;100906.50;5133162;28;20041;-74
2023/07/05 14:28:14;;;;;;;4.70;2.35;;;;;;;21.33;54.80;100898.81;5133306;27;20783;-74
2023/07/05 14:34:01;;;;;;;5.13;3.58;;;;;;;21.39;53.74;100912.38;5133071;28;20042;-73
2023/07/05 14:43:13;;;;;;;4.78;2.42;;;;;;;21.59;55.70;100914.94;5112647;28;20089;-74
2023/07/05 14:49:00;;;;;;;3.97;2.20;;;;;;;21.70;57.28;100913.75;5112538;28;20046;-73
2023/07/05 14:51:27;;;;;;;5.43;2.70;;;;;;;21.79;54.62;100914.75;5111570;28;20040;-73
2023/07/05 14:57:13;;;;;;;3.88;2.60;;;;;;;21.59;52.35;100912.19;5112442;28;20047;-71
2023/07/05 15:03:08;;;;;;;6.47;2.60;;;;;;;21.36;56.08;100931.97;5111840;28;20463;-74
2023/07/05 15:08:55;;;;;;;6.28;2.88;;;;;;;21.58;51.31;100907.84;5111175;28;20038;-72
2023/07/05 15:14:42;;;;;;;4.43;2.47;;;;;;;21.51;53.10;100915.53;5111424;28;20362;-71
2023/07/05 15:20:31;;;;;;;6.43;2.83;;;;;;;21.81;52.26;100925.34;5111580;28;20433;-74
2023/07/05 15:26:20;;;;;;;6.28;2.83;;;;;;;21.90;51.94;100924.44;5111366;28;20070;-72
2023/07/05 15:32:07;;;;;;;5.07;2.60;;;;;;;21.84;51.27;100939.19;5111485;28;20124;-74
2023/07/05 15:37:55;;;;;;;3.45;2.30;;;;;;;21.56;53.06;100951.69;5112156;28;20046;-74
2023/07/05 15:43:42;;;;;;;3.63;2.50;;;;;;;21.63;53.66;100957.59;5114906;28;20046;-75
2023/07/05 15:49:29;;;;;;;5.28;2.67;;;;;;;21.24;53.77;100957.63;5114702;28;20275;-74
2023/07/05 15:55:16;;;;;;;4.70;2.47;;;;;;;20.60;56.17;100961.22;5115091;28;20078;-75
2023/07/05 16:01:13;;;;;;;5.70;2.53;;;;;;;20.68;56.88;100978.84;5114621;28;20082;-74
2023/07/05 16:07:00;;;;;;;10.63;3.05;;;;;;;20.56;60.07;100976.44;5114599;28;20089;-74
2023/07/05 16:12:48;;;;;;;4.70;2.60;;;;;;;21.09;61.53;100974.00;5114219;28;20093;-73
2023/07/05 16:18:35;;;;;;;4.55;2.40;;;;;;;20.71;58.65;100960.06;5114712;28;20043;-73
2023/07/05 16:24:22;;;;;;;5.15;2.42;;;;;;;20.51;61.41;100991.94;5114073;28;20089;-74
2023/07/05 16:33:31;;;;;;;6.95;2.80;;;;;;;20.95;69.11;100992.84;5114246;28;20131;-73
2023/07/05 16:39:18;;;;;;;7.57;2.72;;;;;;;21.01;68.09;100994.44;5114142;28;20050;-74
2023/07/05 16:45:07;;;;;;;9.80;3.20;;;;;;;20.84;67.64;101004.06;5113874;28;20276;-75
2023/07/05 16:50:54;;;;;;;5.60;2.60;;;;;;;20.27;70.16;100997.16;5114738;28;20080;-75
2023/07/05 16:56:41;;;;;;;6.38;2.60;;;;;;;20.47;71.54;100996.28;5113606;28;20392;-73
2023/07/05 17:02:30;;;;;;;7.35;3.15;;;;;;;20.54;69.43;101011.25;5113411;28;20642;-75
2023/07/05 17:08:18;;;;;;;4.85;2.85;;;;;;;21.02;69.91;101008.84;5114026;28;20498;-74
2023/07/05 17:14:05;;;;;;;3.75;2.70;;;;;;;20.88;66.80;101019.53;5113806;28;20050;-76
2023/07/05 17:19:52;;;;;;;3.83;2.60;;;;;;;20.17;70.59;101016.97;5113329;28;20502;-75
2023/07/05 17:25:38;;;;;;;4.35;2.42;;;;;;;20.29;69.38;101031.09;5113259;28;20085;-75
2023/07/05 17:31:25;;;;;;;4.53;2.78;;;;;;;20.18;79.36;101029.44;5113100;28;20335;-73
2023/07/05 17:37:12;;;;;;;6.50;2.80;;;;;;;19.41;87.77;101035.91;5113134;28;20588;-74
2023/07/05 17:42:59;;;;;;;9.18;3.55;;;;;;;18.38;100.00;101066.28;5113175;28;20047;-76
2023/07/05 17:48:47;;;;;;;6.93;3.95;;;;;;;16.03;100.00;101071.81;5113583;28;20050;-75
2023/07/05 17:54:34;;;;;;;9.63;4.60;;;;;;;15.19;100.00;101072.41;5112620;28;20066;-79
2023/07/05 18:00:21;;;;;;;10.38;5.38;;;;;;;14.93;100.00;101074.81;5111993;28;20846;-79
2023/07/05 18:06:10;;;;;;;11.85;6.15;;;;;;;15.11;100.00;101093.50;5112730;28;20461;-78
2023/07/05 18:11:56;;;;;;;13.45;6.05;;;;;;;15.12;100.00;101095.16;5112557;28;20403;-78
2023/07/05 18:17:42;;;;;;;6.50;5.80;;;;;;;15.08;100.00;101119.03;5111463;28;20287;-79
2023/07/05 18:23:31;;;;;;;9.32;6.10;;;;;;;14.82;100.00;101114.97;5112561;28;20449;-78
2023/07/05 18:29:18;;;;;;;7.97;5.97;;;;;;;14.56;100.00;101136.97;5112531;28;20034;-78
2023/07/05 18:35:07;;;;;;;11.18;6.95;;;;;;;14.44;100.00;101142.31;5112253;28;20172;-79
2023/07/05 18:41:10;;;;;;;10.70;5.32;;;;;;;14.55;100.00;101133.47;5112493;28;20047;-80
2023/07/05 18:46:57;;;;;;;10.80;5.43;;;;;;;14.44;100.00;101141.50;5112226;28;20407;-79
2023/07/05 18:52:44;;;;;;;5.93;4.82;;;;;;;14.43;100.00;101132.63;5111944;28;20638;-78
2023/07/05 18:58:34;;;;;;;7.85;4.70;;;;;;;14.37;100.00;101146.97;5112031;28;20307;-78
2023/07/05 19:04:21;;;;;;;9.25;5.65;;;;;;;14.29;100.00;101163.47;5111866;28;20127;-79
2023/07/05 19:10:08;;;;;;;7.05;4.55;;;;;;;14.23;100.00;101175.97;5111927;28;20300;-79
2023/07/05 19:15:56;;;;;;;10.57;4.78;;;;;;;14.17;100.00;101173.38;5115438;28;20093;-79
2023/07/05 19:21:43;;;;;;;8.63;4.80;;;;;;;13.97;100.00;101172.81;5115427;28;20046;-79
2023/07/05 19:27:31;;;;;;;8.57;5.47;;;;;;;13.99;100.00;101171.56;5115472;28;20069;-78
2023/07/05 19:33:18;;;;;;;8.55;4.80;;;;;;;14.11;100.00;101174.28;5115191;28;20070;-79
2023/07/05 19:39:06;;;;;;;8.30;5.15;;;;;;;14.18;100.00;101180.41;5115392;28;20112;-78
2023/07/05 19:44:53;;;;;;;7.55;4.93;;;;;;;14.19;100.00;101179.34;5114742;28;20058;-79
2023/07/05 19:50:40;;;;;;;6.22;4.70;;;;;;;14.15;100.00;101188.91;5114954;28;20544;-78
2023/07/05 19:56:27;;;;;;;8.75;5.95;;;;;;;14.13;100.00;101196.38;5114627;28;20380;-78
2023/07/05 20:02:14;;;;;;;7.90;5.28;;;;;;;14.16;100.00;101190.53;5114548;28;20042;-78
2023/07/05 20:08:03;;;;;;;7.20;5.55;;;;;;;14.17;100.00;101214.53;5114794;28;20140;-78
2023/07/05 20:13:50;;;;;;;9.48;5.70;;;;;;;14.16;100.00;101209.34;5114369;28;20273;-79
2023/07/05 20:19:37;;;;;;;6.75;5.05;;;;;;;13.97;100.00;101199.72;5114757;28;20148;-78
2023/07/05 20:25:24;;;;;;;13.05;7.18;;;;;;;13.91;100.00;101217.59;5113814;28;20046;-79
2023/07/05 20:31:11;;;;;;;7.57;5.88;;;;;;;13.88;100.00;101215.34;5114323;28;20066;-79
2023/07/05 20:36:59;;;;;;;10.23;6.20;;;;;;;13.88;100.00;101221.53;5113955;28;20049;-79
2023/07/05 20:42:47;;;;;;;10.70;6.05;;;;;;;13.88;100.00;101231.47;5114382;28;20123;-80
2023/07/05 20:48:35;;;;;;;8.48;6.38;;;;;;;13.79;100.00;101236.31;5113520;28;20104;-82
2023/07/05 20:54:24;;;;;;;9.63;6.18;;;;;;;13.81;100.00;101244.16;5114141;28;20691;-78
2023/07/05 21:00:14;;;;;;;10.82;6.97;;;;;;;13.79;100.00;101244.38;5113863;28;20088;-80
2023/07/05 21:06:01;;;;;;;10.10;6.65;;;;;;;13.83;100.00;101248.25;5114192;28;20502;-79
2023/07/05 21:11:48;;;;;;;10.55;6.78;;;;;;;13.85;100.00;101256.91;5114821;28;20042;-81
2023/07/05 21:17:35;;;;;;;10.63;6.70;;;;;;;13.83;100.00;101247.44;5115596;28;20042;-81
2023/07/05 21:23:23;;;;;;;8.23;6.60;;;;;;;13.80;100.00;101255.97;5116636;28;20371;-80
2023/07/05 21:29:10;;;;;;;8.75;7.43;;;;;;;13.56;100.00;101245.06;5114266;28;20085;-80
2023/07/05 21:34:57;;;;;;;10.90;7.75;;;;;;;13.60;100.00;101261.56;5112748;28;20085;-80
2023/07/05 21:40:44;;;;;;;12.13;7.15;;;;;;;13.61;100.00;101263.22;5113322;28;20054;-80
2023/07/05 21:46:33;;;;;;;11.18;7.85;;;;;;;13.67;100.00;101272.25;5112983;28;20518;-81
2023/07/05 21:52:20;;;;;;;12.25;7.20;;;;;;;13.67;100.00;101266.88;5113021;28;20058;-81
2023/07/05 21:58:08;;;;;;;12.30;7.03;;;;;;;13.67;100.00;101273.06;5112878;28;20078;-81
2023/07/05 22:03:58;;;;;;;12.27;7.97;;;;;;;13.62;100.00;101270.25;5112777;28;20050;-80
2023/07/05 22:09:46;;;;;;;12.90;8.65;;;;;;;13.63;100.00;101279.94;5112278;28;20051;-81
2023/07/05 22:15:33;;;;;;;12.80;8.02;;;;;;;13.71;100.00;101287.69;5112771;28;20034;-78
2023/07/05 22:21:23;;;;;;;16.88;8.18;;;;;;;13.75;100.00;101293.44;5112712;28;20041;-81
2023/07/05 22:23:48;;;;;;;14.98;7.88;;;;;;;13.78;100.00;101290.31;5111511;28;20035;-83
2023/07/05 22:29:35;;;;;;;13.40;8.55;;;;;;;13.76;100.00;101295.09;5112385;28;20272;-81
2023/07/05 22:35:28;;;;;;;14.27;8.23;;;;;;;13.87;100.00;101316.66;5112384;28;20503;-81
2023/07/05 22:41:15;;;;;;;13.43;8.60;;;;;;;13.78;100.00;101301.88;5112623;28;20047;-82
2023/07/05 22:47:02;;;;;;;14.27;9.25;;;;;;;13.71;100.00;101306.50;5111785;28;20654;-81
2023/07/05 22:52:50;;;;;;;14.95;9.00;;;;;;;13.60;100.00;101308.09;5112364;28;20455;-80
2023/07/05 22:55:16;;;;;;;14.18;8.90;;;;;;;13.53;100.00;101301.09;5111173;28;20050;-80
2023/07/05 22:57:41;;;;;;;18.10;9.60;;;;;;;13.55;100.00;101309.78;5111862;28;20434;-80
2023/07/05 23:03:34;;;;;;;16.77;9.88;;;;;;;13.44;100.00;101315.88;5112552;28;20161;-81
2023/07/05 23:06:05;;;;;;;15.45;9.38;;;;;;;13.39;100.00;101321.09;5111866;28;20466;-80
2023/07/05 23:08:32;;;;;;;16.05;9.43;;;;;;;13.32;100.00;101313.09;5092942;28;20042;-80
2023/07/05 23:11:02;;;;;;;12.95;9.15;;;;;;;13.24;100.00;101313.38;5093388;28;20032;-81
2023/07/05 23:16:50;;;;;;;15.05;8.82;;;;;;;13.19;100.00;101313.22;5111646;28;20088;-79
2023/07/05 23:22:40;;;;;;;17.20;9.95;;;;;;;13.10;100.00;101314.50;5111831;28;20050;-79
2023/07/05 23:25:05;;;;;;;18.70;10.40;;;;;;;13.03;100.00;101314.56;5110586;28;20047;-79
2023/07/05 23:31:10;;;;;;;13.63;9.63;;;;;;;13.03;100.00;101310.00;5111666;28;20062;-82
2023/07/05 23:36:38;;;;;;;16.85;9.57;;;;;;;13.11;100.00;101322.34;5111550;28;20419;-84
2023/07/05 23:39:04;;;;;;;16.25;10.48;;;;;;;13.09;100.00;101311.00;5092715;28;20040;-83
2023/07/05 23:41:31;;;;;;;15.68;9.52;;;;;;;13.13;100.00;101322.94;5111510;28;20463;-81
2023/07/05 23:43:56;;;;;;;14.02;10.00;;;;;;;13.17;100.00;101312.56;5110681;28;20036;-81
2023/07/05 23:46:29;;;;;;;14.30;9.27;;;;;;;13.16;100.00;101308.25;5093141;28;20046;-79
2023/07/05 23:52:17;;;;;;;17.25;9.25;;;;;;;13.22;100.00;101310.91;5111541;28;20038;-81
2023/07/05 23:54:43;;;;;;;13.77;8.73;;;;;;;13.24;100.00;101319.56;5092974;28;20024;-80
2023/07/05 23:57:08;;;;;;;11.93;8.45;;;;;;;13.24;100.00;101318.72;5110292;28;20043;-81
